Time;durP1;ratioP1;P1;durP2;ratioP2;P2;SDS_P1;SDS_P2;PMS_P1;PMS_P2;Temp;Humidity;BMP_temperature;BMP_pressure;BME280_temperature;BME280_humidity;BME280_pressure;Samples;Min_cycle;Max_cycle;Signal;HPM_P1;HPM_P2
2023/10/28 00:01:43;;;;;;;9.25;4.93;;;16.50;99.90;;;;;;5060031;28;20456;-78
2023/10/28 00:04:11;;;;;;;11.40;5.47;;;16.60;99.90;;;;;;5063651;28;20499;-76
2023/10/28 00:06:39;;;;;;;9.32;4.93;;;16.80;99.90;;;;;;5042602;28;20116;-77
2023/10/28 00:09:06;;;;;;;10.85;5.68;;;17.00;99.90;;;;;;5062696;28;20047;-77
2023/10/28 00:11:33;;;;;;;9.15;5.50;;;17.00;99.90;;;;;;5054179;28;20052;-78
2023/10/28 00:14:00;;;;;;;10.25;5.60;;;16.90;99.90;;;;;;5064499;28;20142;-78
2023/10/28 00:16:28;;;;;;;11.40;5.30;;;16.70;99.90;;;;;;5065922;28;20106;-77
2023/10/28 00:18:58;;;;;;;10.38;5.55;;;16.70;99.90;;;;;;5049971;28;20041;-77
2023/10/28 00:21:32;;;;;;;8.35;6.20;;;16.70;99.90;;;;;;5066402;28;20051;-75
2023/10/28 00:23:59;;;;;;;11.88;7.07;;;16.60;99.90;;;;;;5051869;28;20037;-75
2023/10/28 00:26:27;;;;;;;11.45;5.95;;;16.50;99.90;;;;;;5064452;28;20036;-77
2023/10/28 00:28:54;;;;;;;11.13;5.20;;;16.50;99.90;;;;;;5067692;28;20032;-75
2023/10/28 00:31:21;;;;;;;10.93;6.20;;;16.60;99.90;;;;;;5066687;28;20498;-75
2023/10/28 00:33:49;;;;;;;9.52;5.60;;;16.50;99.90;;;;;;5064697;28;20044;-74
2023/10/28 00:36:17;;;;;;;11.43;6.18;;;16.40;99.90;;;;;;5068929;28;20039;-74
2023/10/28 00:38:44;;;;;;;12.27;6.35;;;16.40;99.90;;;;;;5066666;28;20052;-76
2023/10/28 00:41:13;;;;;;;8.55;5.13;;;16.30;99.90;;;;;;5069299;28;20041;-74
2023/10/28 00:43:40;;;;;;;13.68;6.13;;;16.40;99.90;;;;;;5071630;28;20048;-73
2023/10/28 00:46:07;;;;;;;15.15;6.60;;;16.40;99.90;;;;;;5089821;28;20180;-76
2023/10/28 00:48:35;;;;;;;9.40;6.10;;;16.30;99.90;;;;;;5083927;28;20040;-75
2023/10/28 00:51:02;;;;;;;9.68;5.75;;;16.10;99.90;;;;;;5085798;28;20474;-76
2023/10/28 00:53:31;;;;;;;15.60;6.47;;;16.00;99.90;;;;;;5084938;28;20081;-74
2023/10/28 00:55:59;;;;;;;11.88;6.10;;;16.00;99.90;;;;;;5085947;28;20391;-74
2023/10/28 00:58:28;;;;;;;12.02;6.82;;;15.90;99.90;;;;;;5090434;28;20111;-75
2023/10/28 01:00:58;;;;;;;11.70;6.47;;;16.00;99.90;;;;;;5084310;28;20523;-76
2023/10/28 01:03:28;;;;;;;9.52;5.47;;;16.00;99.90;;;;;;5053747;28;20090;-76
2023/10/28 01:05:57;;;;;;;9.65;5.20;;;16.10;99.90;;;;;;5087640;28;20044;-76
2023/10/28 01:08:24;;;;;;;11.57;5.22;;;16.30;99.90;;;;;;5088116;28;20495;-76
2023/10/28 01:10:52;;;;;;;11.18;3.78;;;16.40;99.90;;;;;;5081975;28;20051;-73
2023/10/28 01:13:19;;;;;;;10.70;4.20;;;16.60;99.90;;;;;;5085244;28;20044;-74
2023/10/28 01:15:46;;;;;;;6.93;4.30;;;16.70;99.90;;;;;;5071544;28;20040;-74
2023/10/28 01:18:14;;;;;;;8.50;4.43;;;16.60;99.90;;;;;;5081572;28;20040;-75
2023/10/28 01:20:41;;;;;;;9.43;4.78;;;16.60;99.90;;;;;;5087284;28;20047;-74
2023/10/28 01:23:08;;;;;;;10.00;5.40;;;16.50;99.90;;;;;;5087256;28;20094;-74
2023/10/28 01:25:35;;;;;;;11.48;5.75;;;16.40;99.90;;;;;;5085292;28;20513;-75
2023/10/28 01:28:03;;;;;;;10.35;6.43;;;16.30;99.90;;;;;;5085491;28;20036;-76
2023/10/28 01:30:30;;;;;;;11.80;6.18;;;16.10;99.90;;;;;;5087531;28;20040;-75
2023/10/28 01:32:57;;;;;;;13.27;7.28;;;16.00;99.90;;;;;;5085875;28;20051;-75
2023/10/28 01:35:25;;;;;;;12.23;6.70;;;16.00;99.90;;;;;;5084788;28;20040;-74
2023/10/28 01:37:52;;;;;;;11.50;5.95;;;15.90;99.90;;;;;;5088784;28;20055;-73
2023/10/28 01:40:19;;;;;;;10.02;6.28;;;15.80;99.90;;;;;;5086993;28;20901;-75
2023/10/28 01:42:46;;;;;;;10.68;6.05;;;15.70;99.90;;;;;;5086755;28;20042;-74
2023/10/28 01:45:15;;;;;;;10.52;6.28;;;15.60;99.90;;;;;;5087127;28;20496;-75
2023/10/28 01:47:43;;;;;;;12.18;7.18;;;15.60;99.90;;;;;;5067222;28;20044;-76
2023/10/28 01:50:11;;;;;;;9.98;6.63;;;15.60;99.90;;;;;;5085688;28;20070;-75
2023/10/28 01:52:40;;;;;;;8.77;5.35;;;15.60;99.90;;;;;;5081097;28;20385;-75
2023/10/28 01:55:09;;;;;;;10.43;6.05;;;15.70;99.90;;;;;;5080667;28;20043;-76
2023/10/28 01:57:37;;;;;;;11.85;6.55;;;15.70;99.90;;;;;;5085506;28;20064;-75
2023/10/28 02:00:06;;;;;;;14.77;5.97;;;15.40;99.90;;;;;;5084038;28;20036;-76
2023/10/28 02:02:34;;;;;;;9.65;5.85;;;15.60;99.90;;;;;;5081361;28;20044;-75
2023/10/28 02:05:02;;;;;;;10.93;5.75;;;15.60;99.90;;;;;;5079974;28;20029;-74
2023/10/28 02:07:29;;;;;;;13.57;6.28;;;15.60;99.90;;;;;;5087989;28;20476;-74
2023/10/28 02:09:56;;;;;;;12.07;6.47;;;15.60;99.90;;;;;;5092773;28;20387;-72
2023/10/28 02:12:24;;;;;;;18.05;7.22;;;15.70;99.90;;;;;;5085916;28;20119;-75
2023/10/28 02:14:51;;;;;;;14.95;7.22;;;15.50;99.90;;;;;;5088577;28;20465;-74
2023/10/28 02:17:19;;;;;;;14.00;7.88;;;15.60;99.90;;;;;;5092672;28;20032;-75
2023/10/28 02:19:46;;;;;;;12.20;6.35;;;15.60;99.90;;;;;;5086037;28;20048;-75
2023/10/28 02:22:15;;;;;;;11.40;6.55;;;15.30;99.90;;;;;;5090677;28;20031;-75
2023/10/28 02:24:42;;;;;;;10.23;5.68;;;15.20;99.90;;;;;;5073391;28;20047;-76
2023/10/28 02:27:11;;;;;;;13.05;6.68;;;15.20;99.90;;;;;;5088731;28;20036;-77
2023/10/28 02:29:38;;;;;;;11.07;5.30;;;15.20;99.90;;;;;;5054959;28;20044;-77
2023/10/28 02:32:09;;;;;;;9.57;6.03;;;15.20;99.90;;;;;;5091440;28;20055;-76
2023/10/28 02:34:36;;;;;;;11.05;5.63;;;15.30;99.90;;;;;;5089508;28;20051;-76
2023/10/28 02:37:05;;;;;;;14.18;5.70;;;15.30;99.90;;;;;;5091863;28;20033;-75
2023/10/28 02:39:33;;;;;;;8.60;5.00;;;15.40;99.90;;;;;;5092374;28;20050;-73
2023/10/28 02:42:00;;;;;;;11.85;6.82;;;15.50;99.90;;;;;;5088232;28;20036;-76
2023/10/28 02:44:29;;;;;;;8.15;5.40;;;15.60;99.90;;;;;;5091217;28;20044;-75
2023/10/28 02:46:58;;;;;;;14.15;5.72;;;15.60;99.90;;;;;;5088947;28;20055;-73
2023/10/28 02:49:26;;;;;;;9.70;5.53;;;15.50;99.90;;;;;;5084218;28;20437;-74
2023/10/28 02:51:53;;;;;;;9.60;6.00;;;15.50;99.90;;;;;;5088168;28;20068;-73
2023/10/28 02:54:20;;;;;;;11.10;5.75;;;15.50;99.90;;;;;;5086856;28;20051;-73
2023/10/28 02:56:47;;;;;;;8.77;5.07;;;15.50;99.90;;;;;;5090623;28;20440;-75
2023/10/28 02:59:15;;;;;;;8.77;5.45;;;15.50;99.90;;;;;;5087766;28;20063;-74
2023/10/28 03:01:42;;;;;;;11.38;4.90;;;15.60;99.90;;;;;;5089545;28;20040;-76
2023/10/28 03:04:11;;;;;;;9.90;5.45;;;15.60;99.90;;;;;;5087400;28;20064;-79
2023/10/28 03:06:39;;;;;;;7.57;5.03;;;15.50;99.90;;;;;;5089711;28;20041;-74
2023/10/28 03:09:06;;;;;;;10.50;5.22;;;15.50;99.90;;;;;;5091747;28;20032;-74
2023/10/28 03:11:33;;;;;;;10.68;5.40;;;15.40;99.90;;;;;;5069850;28;20499;-76
2023/10/28 03:14:00;;;;;;;11.05;5.22;;;15.30;99.90;;;;;;5089837;28;20410;-74
2023/10/28 03:16:28;;;;;;;11.73;5.18;;;15.30;99.90;;;;;;5089177;28;20032;-75
2023/10/28 03:18:56;;;;;;;9.35;5.00;;;15.30;99.90;;;;;;5084628;28;20074;-74
2023/10/28 03:21:24;;;;;;;10.02;4.47;;;15.10;99.90;;;;;;5070930;28;20066;-75
2023/10/28 03:23:51;;;;;;;9.85;4.72;;;15.10;99.90;;;;;;5090862;28;20135;-75
2023/10/28 03:26:18;;;;;;;7.00;4.43;;;15.20;99.90;;;;;;5052744;28;20498;-76
2023/10/28 03:28:46;;;;;;;7.43;4.22;;;14.90;99.90;;;;;;5072971;28;20039;-76
2023/10/28 03:31:14;;;;;;;6.53;4.35;;;14.90;99.90;;;;;;5089875;28;20065;-75
2023/10/28 03:33:42;;;;;;;8.25;4.57;;;15.10;99.90;;;;;;5089421;28;20043;-72
2023/10/28 03:36:09;;;;;;;8.98;4.75;;;14.90;99.90;;;;;;5087098;28;20036;-74
2023/10/28 03:38:37;;;;;;;7.38;4.78;;;15.00;99.90;;;;;;5088718;28;20487;-73
2023/10/28 03:41:08;;;;;;;9.63;4.70;;;14.90;99.90;;;;;;5087967;28;20387;-73
2023/10/28 03:43:37;;;;;;;7.35;4.13;;;14.70;99.90;;;;;;5085459;28;20465;-73
2023/10/28 03:46:04;;;;;;;10.00;4.40;;;14.60;99.90;;;;;;5091587;28;20040;-73
2023/10/28 03:48:33;;;;;;;8.65;4.88;;;14.60;99.90;;;;;;5090376;28;20043;-74
2023/10/28 03:51:05;;;;;;;7.45;4.95;;;14.60;99.90;;;;;;5089827;28;20754;-74
2023/10/28 03:53:33;;;;;;;10.60;5.55;;;14.60;99.90;;;;;;5088051;28;20040;-75
2023/10/28 03:56:00;;;;;;;9.77;5.30;;;14.70;99.90;;;;;;5086339;28;20044;-74
2023/10/28 03:58:27;;;;;;;10.30;4.78;;;14.80;99.90;;;;;;5091057;28;20101;-75
2023/10/28 04:00:55;;;;;;;7.40;4.80;;;14.80;99.90;;;;;;5084085;28;20032;-74
2023/10/28 04:03:23;;;;;;;9.05;5.03;;;14.90;99.90;;;;;;5086036;28;20059;-74
2023/10/28 04:05:51;;;;;;;11.13;4.90;;;14.90;99.90;;;;;;5087559;28;20040;-74
2023/10/28 04:08:18;;;;;;;9.52;5.05;;;15.00;99.90;;;;;;5089780;28;20101;-75
2023/10/28 04:10:46;;;;;;;7.80;5.18;;;15.00;99.90;;;;;;5072918;28;20047;-76
2023/10/28 04:13:14;;;;;;;8.57;5.05;;;14.90;99.90;;;;;;5084436;28;20040;-72
2023/10/28 04:15:41;;;;;;;10.98;5.53;;;14.90;99.90;;;;;;5089127;28;20487;-75
2023/10/28 04:18:09;;;;;;;9.82;4.93;;;14.90;99.90;;;;;;5085913;28;20500;-74
2023/10/28 04:20:37;;;;;;;9.13;5.15;;;14.90;99.90;;;;;;5087737;28;20117;-74
2023/10/28 04:23:05;;;;;;;12.95;5.35;;;14.90;99.90;;;;;;5086863;28;20495;-74
2023/10/28 04:25:34;;;;;;;10.80;5.22;;;14.90;99.90;;;;;;5089655;28;20048;-76
2023/10/28 04:28:01;;;;;;;11.25;5.45;;;14.90;99.90;;;;;;5066744;28;20499;-75
2023/10/28 04:30:30;;;;;;;7.93;5.13;;;14.70;99.90;;;;;;5087073;28;20035;-76
2023/10/28 04:32:57;;;;;;;11.63;5.15;;;14.60;99.90;;;;;;5082625;28;20058;-75
2023/10/28 04:35:24;;;;;;;7.60;4.90;;;14.70;99.90;;;;;;5069855;28;20048;-75
2023/10/28 04:37:58;;;;;;;;;;;14.70;99.90;;;;;;5084847;28;20085;-75
2023/10/28 04:40:25;;;;;;;10.02;5.55;;;14.70;99.90;;;;;;5087261;28;20010;-76
2023/10/28 04:42:53;;;;;;;11.02;5.63;;;14.60;99.90;;;;;;5087536;28;20032;-74
2023/10/28 04:45:23;;;;;;;9.73;5.65;;;14.60;99.90;;;;;;5087509;28;20075;-75
2023/10/28 04:47:50;;;;;;;10.25;5.65;;;14.50;99.90;;;;;;5086296;28;20044;-74
2023/10/28 04:50:18;;;;;;;9.30;5.75;;;14.10;99.90;;;;;;5085684;28;20065;-74
2023/10/28 04:52:45;;;;;;;10.23;5.82;;;14.20;99.90;;;;;;5085139;28;20045;-74
2023/10/28 04:55:13;;;;;;;12.88;5.95;;;14.20;99.90;;;;;;5087758;28;20473;-75
2023/10/28 04:57:41;;;;;;;11.38;5.53;;;14.20;99.90;;;;;;5086524;28;20058;-74
2023/10/28 05:00:09;;;;;;;10.18;5.63;;;14.40;99.90;;;;;;5085445;28;20392;-74
2023/10/28 05:02:36;;;;;;;7.97;4.82;;;14.30;99.90;;;;;;5084762;28;20062;-74
2023/10/28 05:05:04;;;;;;;14.60;4.95;;;14.40;99.90;;;;;;5087211;28;20702;-74
2023/10/28 05:07:31;;;;;;;11.90;5.38;;;14.60;99.90;;;;;;5088051;28;20036;-74
2023/10/28 05:09:59;;;;;;;9.27;5.32;;;14.60;99.90;;;;;;5088345;28;20093;-73
2023/10/28 05:12:26;;;;;;;10.55;5.10;;;14.50;99.90;;;;;;5064637;28;20400;-73
2023/10/28 05:14:53;;;;;;;10.30;5.18;;;14.50;99.90;;;;;;5084540;28;20044;-74
2023/10/28 05:17:20;;;;;;;13.82;4.85;;;14.50;99.90;;;;;;5088897;28;21452;-75
2023/10/28 05:19:48;;;;;;;9.77;5.05;;;14.40;99.90;;;;;;5067809;28;20036;-74
2023/10/28 05:22:18;;;;;;;10.32;5.63;;;14.10;99.90;;;;;;5089631;28;20032;-74
2023/10/28 05:24:45;;;;;;;9.73;4.90;;;14.20;99.90;;;;;;5088100;28;20040;-74
2023/10/28 05:27:13;;;;;;;8.25;5.38;;;14.40;99.90;;;;;;5088853;28;20052;-75
2023/10/28 05:29:40;;;;;;;10.57;5.03;;;14.30;99.90;;;;;;5085057;28;20044;-74
2023/10/28 05:32:08;;;;;;;10.63;5.32;;;14.40;99.90;;;;;;5087425;28;20044;-77
2023/10/28 05:34:36;;;;;;;9.48;5.82;;;14.50;99.90;;;;;;5085581;28;20062;-74
2023/10/28 05:37:03;;;;;;;11.85;5.97;;;14.30;99.90;;;;;;5084131;28;20047;-73
2023/10/28 05:39:30;;;;;;;13.00;5.95;;;14.30;99.90;;;;;;5088866;28;20170;-74
2023/10/28 05:41:58;;;;;;;10.07;6.55;;;14.30;99.90;;;;;;5081823;28;20051;-75
2023/10/28 05:44:25;;;;;;;16.48;5.72;;;14.40;99.90;;;;;;5086613;28;20127;-75
2023/10/28 05:46:52;;;;;;;11.85;6.03;;;14.40;99.90;;;;;;5088322;28;20224;-74
2023/10/28 05:49:19;;;;;;;10.48;6.35;;;14.30;99.90;;;;;;5066119;28;20472;-75
2023/10/28 05:51:47;;;;;;;16.95;6.03;;;14.40;99.90;;;;;;5070760;28;20044;-75
2023/10/28 05:54:14;;;;;;;10.40;6.20;;;14.40;99.90;;;;;;5086271;28;20040;-75
2023/10/28 05:56:41;;;;;;;9.50;5.82;;;14.40;99.90;;;;;;5089365;28;20055;-75
2023/10/28 05:59:08;;;;;;;8.20;5.57;;;14.40;99.90;;;;;;5087894;28;20412;-77
2023/10/28 06:01:36;;;;;;;10.20;6.13;;;14.50;99.90;;;;;;5085214;28;20044;-76
2023/10/28 06:04:04;;;;;;;11.68;7.10;;;14.50;99.90;;;;;;5089727;28;20036;-75
2023/10/28 06:06:31;;;;;;;10.55;6.00;;;14.50;99.90;;;;;;5082964;28;20083;-75
2023/10/28 06:09:00;;;;;;;9.55;5.88;;;14.50;99.90;;;;;;5084092;28;20373;-73
2023/10/28 06:11:28;;;;;;;11.30;6.13;;;14.50;99.90;;;;;;5085057;28;20478;-75
2023/10/28 06:13:55;;;;;;;9.43;6.05;;;14.50;99.90;;;;;;5067639;28;20087;-76
2023/10/28 06:16:22;;;;;;;17.45;6.72;;;14.40;99.90;;;;;;5068924;28;20184;-73
2023/10/28 06:18:50;;;;;;;10.23;6.57;;;14.40;99.90;;;;;;5070914;28;20495;-76
2023/10/28 06:21:17;;;;;;;11.85;5.97;;;14.50;99.90;;;;;;5082055;28;20041;-76
2023/10/28 06:23:45;;;;;;;9.65;6.22;;;14.60;99.90;;;;;;5089195;28;20044;-77
2023/10/28 06:26:12;;;;;;;13.93;6.28;;;14.70;99.90;;;;;;5084526;28;20036;-76
2023/10/28 06:28:39;;;;;;;12.73;6.43;;;14.90;99.90;;;;;;5085650;28;20122;-77
2023/10/28 06:31:07;;;;;;;12.50;6.43;;;14.90;99.90;;;;;;5067037;28;20039;-74
2023/10/28 06:33:34;;;;;;;14.02;5.72;;;15.00;99.90;;;;;;5088580;28;20048;-73
2023/10/28 06:36:03;;;;;;;11.20;6.82;;;15.00;99.90;;;;;;5082098;28;20044;-75
2023/10/28 06:38:30;;;;;;;12.90;6.78;;;15.00;99.90;;;;;;5082024;28;20036;-75
2023/10/28 06:40:57;;;;;;;12.77;6.97;;;15.10;99.90;;;;;;5084269;28;20040;-75
2023/10/28 06:43:25;;;;;;;10.65;6.53;;;15.20;99.90;;;;;;5083064;28;20543;-77
2023/10/28 06:45:52;;;;;;;14.63;6.93;;;15.00;99.90;;;;;;5086188;28;20498;-75
2023/10/28 06:48:20;;;;;;;19.25;7.75;;;15.20;99.90;;;;;;5085977;28;20044;-76
2023/10/28 06:50:48;;;;;;;12.52;7.00;;;15.30;99.90;;;;;;5066552;28;20060;-75
2023/10/28 06:53:15;;;;;;;11.65;6.97;;;15.40;99.90;;;;;;5085635;28;20040;-75
2023/10/28 06:55:42;;;;;;;12.30;7.15;;;15.40;99.90;;;;;;5090237;28;20527;-74
2023/10/28 06:58:10;;;;;;;10.88;7.47;;;15.30;99.90;;;;;;5091644;28;20050;-74
2023/10/28 07:00:37;;;;;;;11.02;7.75;;;15.30;99.90;;;;;;5087720;28;20404;-78
2023/10/28 07:03:04;;;;;;;14.60;7.82;;;15.40;99.90;;;;;;5090325;28;20036;-77
2023/10/28 07:05:32;;;;;;;11.05;6.82;;;15.40;99.90;;;;;;5085495;28;20056;-78
2023/10/28 07:07:59;;;;;;;15.02;8.43;;;15.20;99.90;;;;;;5088779;28;20440;-76
2023/10/28 07:10:27;;;;;;;13.77;7.50;;;15.40;99.90;;;;;;5092116;28;20066;-75
2023/10/28 07:12:54;;;;;;;13.23;7.00;;;15.60;99.90;;;;;;5085734;28;20118;-75
2023/10/28 07:15:22;;;;;;;12.27;6.47;;;15.70;99.90;;;;;;5073719;28;20044;-77
2023/10/28 07:17:49;;;;;;;12.18;7.53;;;15.70;99.90;;;;;;5090025;28;20491;-74
2023/10/28 07:20:20;;;;;;;11.98;7.20;;;15.80;99.90;;;;;;5088409;28;20036;-76
2023/10/28 07:22:48;;;;;;;16.15;8.02;;;16.00;99.90;;;;;;5070690;28;20471;-73
2023/10/28 07:25:15;;;;;;;15.35;7.90;;;16.10;99.90;;;;;;5091218;28;20047;-75
2023/10/28 07:27:42;;;;;;;15.45;7.47;;;16.30;99.90;;;;;;5088271;28;20055;-76
2023/10/28 07:30:10;;;;;;;17.58;7.72;;;16.50;99.90;;;;;;5089893;28;20043;-77
2023/10/28 07:32:39;;;;;;;14.68;7.57;;;16.30;99.90;;;;;;5085686;28;20089;-75
2023/10/28 07:35:07;;;;;;;11.95;7.57;;;16.30;99.90;;;;;;5088329;28;20040;-73
2023/10/28 07:37:34;;;;;;;16.52;8.75;;;16.30;99.90;;;;;;5086415;28;20423;-75
2023/10/28 07:40:04;;;;;;;22.58;9.40;;;16.30;99.90;;;;;;5085056;28;20436;-72
2023/10/28 07:42:34;;;;;;;15.85;8.35;;;16.30;99.90;;;;;;5084113;28;20047;-74
2023/10/28 07:45:01;;;;;;;14.82;9.13;;;16.40;99.90;;;;;;5067090;28;20562;-72
2023/10/28 07:47:28;;;;;;;16.42;8.93;;;16.40;99.90;;;;;;5080239;28;20400;-73
2023/10/28 07:49:56;;;;;;;16.35;9.63;;;16.30;99.90;;;;;;5084502;28;20044;-75
2023/10/28 07:52:23;;;;;;;16.73;10.38;;;16.30;99.90;;;;;;5088521;28;20044;-74
2023/10/28 07:54:50;;;;;;;18.30;9.57;;;16.30;99.90;;;;;;5089350;28;20040;-77
2023/10/28 07:57:17;;;;;;;19.08;11.98;;;16.30;99.90;;;;;;5086688;28;20388;-76
2023/10/28 07:59:44;;;;;;;16.67;10.77;;;16.40;99.90;;;;;;5090845;28;20119;-75
2023/10/28 08:02:12;;;;;;;17.42;10.30;;;16.50;99.90;;;;;;5086847;28;20036;-79
2023/10/28 08:04:39;;;;;;;15.38;10.00;;;16.70;99.90;;;;;;5087426;28;20398;-77
2023/10/28 08:07:07;;;;;;;20.35;10.50;;;16.80;99.90;;;;;;5067175;28;20519;-75
2023/10/28 08:09:35;;;;;;;16.38;9.90;;;16.90;99.90;;;;;;5084987;28;20137;-75
2023/10/28 08:12:04;;;;;;;22.67;11.35;;;17.10;99.90;;;;;;5087290;28;20036;-76
2023/10/28 08:14:34;;;;;;;21.55;11.25;;;17.30;99.90;;;;;;5086876;28;20047;-75
2023/10/28 08:17:01;;;;;;;25.25;10.85;;;17.40;99.90;;;;;;5083536;28;20056;-74
2023/10/28 08:19:29;;;;;;;17.33;9.02;;;17.30;99.90;;;;;;5085208;28;20039;-75
2023/10/28 08:21:56;;;;;;;17.65;8.32;;;17.70;99.90;;;;;;5081652;28;20081;-75
2023/10/28 08:24:23;;;;;;;15.40;8.35;;;17.80;99.90;;;;;;5083581;28;20065;-74
2023/10/28 08:26:51;;;;;;;12.35;7.63;;;17.70;99.90;;;;;;5085832;28;20036;-75
2023/10/28 08:29:19;;;;;;;12.63;7.10;;;17.50;99.90;;;;;;5078742;28;20139;-75
2023/10/28 08:31:46;;;;;;;10.80;6.72;;;17.30;99.90;;;;;;5083904;28;20537;-77
2023/10/28 08:34:13;;;;;;;8.45;5.88;;;17.20;99.90;;;;;;5088963;28;20040;-76
2023/10/28 08:36:41;;;;;;;9.15;5.80;;;17.30;99.90;;;;;;5082690;28;20127;-75
2023/10/28 08:39:09;;;;;;;8.50;5.10;;;17.40;99.90;;;;;;5076105;28;20032;-72
2023/10/28 08:41:36;;;;;;;9.55;5.53;;;17.60;99.90;;;;;;5079626;28;20044;-74
2023/10/28 08:44:05;;;;;;;9.23;4.32;;;17.70;99.90;;;;;;5076219;28;20040;-74
2023/10/28 08:46:34;;;;;;;7.25;4.38;;;18.00;99.90;;;;;;5041795;28;20143;-72
2023/10/28 08:49:04;;;;;;;11.10;6.78;;;18.20;99.90;;;;;;5075672;28;20032;-71
2023/10/28 08:51:33;;;;;;;18.55;12.20;;;18.50;99.90;;;;;;5061079;28;20446;-72
2023/10/28 08:54:04;;;;;;;10.85;5.82;;;18.70;99.90;;;;;;5076992;28;20033;-71
2023/10/28 08:56:34;;;;;;;13.73;9.50;;;19.10;99.90;;;;;;5061247;28;20516;-74
2023/10/28 08:59:01;;;;;;;15.47;9.73;;;19.10;99.90;;;;;;5077128;28;20032;-75
2023/10/28 09:01:29;;;;;;;14.48;8.27;;;19.20;99.90;;;;;;5077222;28;20040;-72
2023/10/28 09:04:05;;;;;;;8.68;3.95;;;19.40;99.90;;;;;;5078047;28;20032;-76
2023/10/28 09:06:33;;;;;;;6.47;3.70;;;19.60;99.90;;;;;;5077299;28;20052;-76
2023/10/28 09:09:09;;;;;;;;;;;19.50;99.90;;;;;;5077241;28;20047;-75
2023/10/28 09:11:36;;;;;;;8.45;4.43;;;19.60;99.90;;;;;;5074269;28;19993;-73
2023/10/28 09:14:07;;;;;;;8.95;4.03;;;19.80;99.90;;;;;;5083770;28;20041;-72
2023/10/28 09:16:35;;;;;;;12.25;4.10;;;19.60;99.90;;;;;;5072937;28;20056;-75
2023/10/28 09:19:03;;;;;;;7.25;3.83;;;19.90;99.90;;;;;;5055948;28;20411;-78
2023/10/28 09:21:31;;;;;;;8.38;3.97;;;20.00;99.90;;;;;;5077752;28;20139;-74
2023/10/28 09:24:01;;;;;;;6.65;3.97;;;20.10;99.90;;;;;;5077025;28;20060;-80
2023/10/28 09:26:29;;;;;;;;;;;20.10;99.90;;;;;;5075334;28;20128;-76
2023/10/28 09:28:58;;;;;;;22.02;16.05;;;20.40;99.90;;;;;;5057568;28;19923;-72
2023/10/28 09:31:26;;;;;;;10.60;6.03;;;20.70;99.90;;;;;;5074275;28;20040;-76
2023/10/28 09:33:55;;;;;;;13.48;8.77;;;20.80;99.90;;;;;;5076732;28;20111;-75
2023/10/28 09:36:22;;;;;;;9.23;4.93;;;21.00;99.90;;;;;;5073321;28;20075;-74
2023/10/28 09:38:52;;;;;;;7.22;4.47;;;21.10;99.90;;;;;;5075235;28;20103;-74
2023/10/28 09:41:20;;;;;;;7.55;3.97;;;21.50;99.90;;;;;;5082808;28;20059;-77
2023/10/28 09:43:49;;;;;;;35.42;24.17;;;21.50;99.90;;;;;;5078922;28;20072;-80
2023/10/28 09:46:20;;;;;;;16.20;8.88;;;21.50;99.90;;;;;;5058019;28;20069;-77
2023/10/28 09:48:51;;;;;;;30.65;17.60;;;21.30;99.90;;;;;;5062888;28;20036;-77
2023/10/28 09:51:27;;;;;;;17.08;12.43;;;21.20;99.90;;;;;;5063770;28;20041;-77
2023/10/28 09:54:02;;;;;;;8.23;4.57;;;21.40;99.90;;;;;;5063069;28;20196;-75
2023/10/28 09:56:37;;;;;;;48.60;29.88;;;21.20;99.90;;;;;;5064013;28;20890;-76
2023/10/28 09:59:18;;;;;;;15.82;7.10;;;20.80;99.90;;;;;;5055122;28;20079;-76
2023/10/28 10:02:02;;;;;;;6.80;4.00;;;21.00;99.90;;;;;;5061357;28;20067;-74
2023/10/28 10:04:48;;;;;;;8.35;3.92;;;21.00;99.90;;;;;;5076779;28;20134;-74
2023/10/28 10:07:18;;;;;;;14.60;4.18;;;21.10;99.90;;;;;;5078606;28;20115;-75
2023/10/28 10:09:47;;;;;;;8.30;3.20;;;21.40;99.90;;;;;;5064158;28;20080;-74
2023/10/28 10:12:15;;;;;;;8.40;3.47;;;21.60;99.90;;;;;;5080726;28;20112;-76
2023/10/28 10:14:47;;;;;;;6.93;3.38;;;21.90;99.90;;;;;;5077444;28;20044;-75
2023/10/28 10:17:36;;;;;;;9.43;5.05;;;22.10;99.90;;;;;;5078755;28;20054;-74
2023/10/28 10:20:06;;;;;;;7.03;3.30;;;22.30;99.90;;;;;;5079300;28;20470;-73
2023/10/28 10:22:35;;;;;;;;;;;22.70;99.90;;;;;;5075630;28;20069;-72
2023/10/28 10:25:02;;;;;;;9.68;3.53;;;22.90;99.90;;;;;;5080115;28;20006;-74
2023/10/28 10:27:45;;;;;;;6.70;3.22;;;23.00;99.90;;;;;;5078567;28;20135;-75
2023/10/28 10:30:13;;;;;;;7.75;3.10;;;23.20;99.90;;;;;;5083986;28;20047;-74
2023/10/28 10:32:44;;;;;;;6.75;2.58;;;23.40;99.90;;;;;;5081731;28;20594;-76
2023/10/28 10:35:25;;;;;;;6.43;2.40;;;23.40;99.90;;;;;;5087435;28;20036;-76
2023/10/28 10:38:03;;;;;;;7.30;2.63;;;23.30;99.90;;;;;;5079388;28;20051;-74
2023/10/28 10:40:32;;;;;;;6.07;2.60;;;23.40;99.90;;;;;;5078763;28;20033;-74
2023/10/28 10:43:07;;;;;;;6.73;2.80;;;23.80;99.90;;;;;;5081560;28;20909;-72
2023/10/28 10:45:35;;;;;;;5.10;2.20;;;23.90;99.90;;;;;;5076128;28;20060;-74
2023/10/28 10:48:08;;;;;;;10.25;2.42;;;23.60;99.90;;;;;;5067688;28;20064;-72
2023/10/28 10:50:36;;;;;;;8.93;4.32;;;23.30;99.90;;;;;;5082917;28;20040;-74
2023/10/28 10:53:04;;;;;;;35.53;14.90;;;23.00;99.90;;;;;;5086149;28;20123;-73
2023/10/28 10:55:31;;;;;;;9.05;5.25;;;22.80;99.90;;;;;;5080547;28;20097;-73
2023/10/28 10:57:59;;;;;;;8.57;2.97;;;22.80;99.90;;;;;;5081146;28;20111;-75
2023/10/28 11:00:27;;;;;;;9.95;2.85;;;22.50;99.90;;;;;;5090002;28;20127;-77
2023/10/28 11:02:58;;;;;;;6.43;2.63;;;22.80;99.90;;;;;;5080010;28;20131;-74
2023/10/28 11:05:32;;;;;;;7.03;2.60;;;23.10;99.90;;;;;;5084347;28;20115;-72
2023/10/28 11:08:00;;;;;;;8.38;4.72;;;23.40;99.90;;;;;;5079137;28;20047;-74
2023/10/28 11:10:27;;;;;;;11.02;3.58;;;23.40;99.90;;;;;;5085906;28;20032;-73
2023/10/28 11:12:54;;;;;;;6.38;3.58;;;23.20;99.90;;;;;;5064601;28;20044;-74
2023/10/28 11:15:22;;;;;;;8.32;3.33;;;23.10;99.90;;;;;;5081936;28;20051;-74
2023/10/28 11:17:52;;;;;;;7.38;2.80;;;23.00;99.90;;;;;;5080012;28;20041;-73
2023/10/28 11:20:23;;;;;;;6.57;2.67;;;23.30;99.90;;;;;;5081795;28;20032;-75
2023/10/28 11:22:51;;;;;;;9.18;2.50;;;23.50;99.90;;;;;;5084688;28;20048;-76
2023/10/28 11:25:20;;;;;;;7.65;2.60;;;23.40;99.90;;;;;;5091094;28;20066;-75
2023/10/28 11:27:51;;;;;;;8.10;3.03;;;23.50;99.90;;;;;;5087225;28;20051;-75
2023/10/28 11:30:20;;;;;;;14.05;3.33;;;23.60;99.90;;;;;;5083404;28;20398;-74
2023/10/28 11:32:49;;;;;;;7.85;2.42;;;24.10;99.90;;;;;;5051089;28;20049;-72
2023/10/28 11:35:16;;;;;;;9.30;2.83;;;24.30;99.90;;;;;;5081641;28;20476;-73
2023/10/28 11:37:44;;;;;;;6.68;2.50;;;25.20;99.90;;;;;;5083975;28;20054;-75
2023/10/28 11:40:12;;;;;;;92.93;57.70;;;25.00;99.90;;;;;;5087826;28;20043;-73
2023/10/28 11:42:42;;;;;;;78.38;48.90;;;24.80;99.90;;;;;;5091263;28;20032;-74
2023/10/28 11:45:10;;;;;;;25.75;15.35;;;24.60;99.90;;;;;;5073099;28;20063;-71
2023/10/28 11:47:37;;;;;;;61.70;41.67;;;24.50;99.90;;;;;;5076703;28;20040;-74
2023/10/28 11:50:05;;;;;;;14.95;8.68;;;24.30;99.90;;;;;;5068591;28;20040;-73
2023/10/28 11:52:35;;;;;;;8.85;4.30;;;24.00;99.90;;;;;;5069145;28;20068;-76
2023/10/28 11:55:05;;;;;;;9.02;3.20;;;23.70;99.90;;;;;;5070923;28;20036;-74
2023/10/28 11:57:32;;;;;;;8.90;2.80;;;23.80;99.90;;;;;;5068165;28;20044;-74
2023/10/28 12:00:00;;;;;;;7.32;2.90;;;23.70;99.90;;;;;;5070002;28;20059;-75
2023/10/28 12:02:27;;;;;;;8.75;2.72;;;23.70;99.90;;;;;;5070583;28;20071;-74
2023/10/28 12:04:54;;;;;;;8.95;2.33;;;23.60;99.90;;;;;;5072123;28;20400;-74
2023/10/28 12:07:22;;;;;;;7.43;2.25;;;23.40;99.90;;;;;;5068820;28;20033;-76
2023/10/28 12:09:49;;;;;;;11.38;3.70;;;23.30;99.90;;;;;;5069909;28;20044;-72
2023/10/28 12:12:16;;;;;;;9.13;3.40;;;23.30;99.90;;;;;;5079093;28;20488;-72
2023/10/28 12:14:43;;;;;;;7.90;2.22;;;23.30;99.90;;;;;;5060732;28;20044;-74
2023/10/28 12:17:11;;;;;;;11.27;4.22;;;23.30;99.90;;;;;;5066394;28;20051;-76
2023/10/28 12:19:40;;;;;;;65.45;37.33;;;23.20;99.90;;;;;;5050303;28;20135;-74
2023/10/28 12:22:08;;;;;;;35.58;23.77;;;23.20;99.90;;;;;;5080469;28;20040;-72
2023/10/28 12:24:35;;;;;;;20.27;8.73;;;23.20;99.90;;;;;;5064867;28;20041;-72
2023/10/28 12:27:03;;;;;;;9.57;3.75;;;23.30;99.90;;;;;;5045284;28;20476;-76
2023/10/28 12:29:30;;;;;;;8.05;2.83;;;23.20;99.90;;;;;;5049736;28;20119;-74
2023/10/28 12:31:57;;;;;;;11.40;3.22;;;23.10;99.90;;;;;;5063465;28;20032;-73
2023/10/28 12:34:25;;;;;;;12.02;3.55;;;23.10;99.90;;;;;;5067874;28;20045;-74
2023/10/28 12:36:52;;;;;;;7.07;2.58;;;22.90;99.90;;;;;;5046130;28;20044;-75
2023/10/28 12:39:20;;;;;;;7.68;2.50;;;22.80;99.90;;;;;;5058780;28;20044;-75
2023/10/28 12:41:47;;;;;;;8.32;3.00;;;22.70;99.90;;;;;;5058113;28;20051;-74
2023/10/28 12:44:15;;;;;;;8.43;3.25;;;22.80;99.90;;;;;;5062985;28;20378;-82
2023/10/28 12:46:42;;;;;;;7.13;2.90;;;22.80;99.90;;;;;;5045996;28;20059;-74